Time;durP1;ratioP1;P1;durP2;ratioP2;P2;SDS_P1;SDS_P2;PMS_P1;PMS_P2;Temp;Humidity;BMP_temperature;BMP_pressure;BME280_temperature;BME280_humidity;BME280_pressure;Samples;Min_cycle;Max_cycle;Signal;HPM_P1;HPM_P2
2024/01/05 00:02:07;;;;;;;22.25;8.25;;;6.00;99.90;;;;;;5033001;28;20033;-64
2024/01/05 00:04:32;;;;;;;28.23;8.38;;;6.30;99.90;;;;;;5048426;28;20048;-64
2024/01/05 00:06:58;;;;;;;23.73;8.45;;;6.40;99.90;;;;;;5033281;28;20364;-64
2024/01/05 00:09:23;;;;;;;30.90;8.35;;;6.00;99.90;;;;;;5032980;28;20022;-64
2024/01/05 00:11:51;;;;;;;35.42;8.07;;;6.20;99.90;;;;;;5032967;28;20103;-64
2024/01/05 00:14:16;;;;;;;25.77;7.65;;;6.20;99.90;;;;;;5033090;28;20108;-64
2024/01/05 00:16:42;;;;;;;20.05;6.78;;;6.20;99.90;;;;;;5032990;28;20104;-65
2024/01/05 00:19:08;;;;;;;20.20;6.70;;;6.20;99.90;;;;;;5032953;28;20029;-65
2024/01/05 00:21:33;;;;;;;22.55;6.78;;;6.20;99.90;;;;;;5032973;28;20526;-65
2024/01/05 00:23:59;;;;;;;29.48;7.15;;;6.40;99.90;;;;;;5032876;28;20383;-65
2024/01/05 00:26:25;;;;;;;24.95;7.88;;;6.30;99.90;;;;;;5033016;28;20387;-65
2024/01/05 00:28:51;;;;;;;22.70;7.05;;;6.30;99.90;;;;;;5032850;28;20032;-65
2024/01/05 00:31:17;;;;;;;24.52;5.85;;;6.30;99.90;;;;;;5032806;28;20056;-66
2024/01/05 00:33:43;;;;;;;25.13;6.65;;;6.40;99.90;;;;;;5032858;28;20065;-65
2024/01/05 00:36:10;;;;;;;24.35;5.95;;;6.40;99.90;;;;;;5031452;28;20033;-66
2024/01/05 00:38:36;;;;;;;21.83;5.70;;;6.40;99.90;;;;;;5033090;28;20061;-66
2024/01/05 00:41:02;;;;;;;19.88;5.32;;;6.40;99.90;;;;;;5035411;28;20021;-66
2024/01/05 00:43:28;;;;;;;19.70;6.20;;;6.50;99.90;;;;;;5036599;28;20391;-66
2024/01/05 00:45:55;;;;;;;20.60;5.93;;;6.50;99.90;;;;;;5036431;28;20022;-66
2024/01/05 00:48:20;;;;;;;18.92;5.40;;;6.50;99.90;;;;;;5035248;28;20025;-66
2024/01/05 00:50:46;;;;;;;26.65;6.75;;;6.40;99.90;;;;;;5036584;28;20391;-66
2024/01/05 00:53:12;;;;;;;20.55;6.25;;;6.50;99.90;;;;;;5036341;28;20036;-66
2024/01/05 00:55:41;;;;;;;24.98;7.43;;;6.60;99.90;;;;;;5036345;28;20477;-66
2024/01/05 00:58:06;;;;;;;17.75;5.78;;;6.60;99.90;;;;;;5035868;28;20029;-66
2024/01/05 01:00:32;;;;;;;16.58;6.10;;;6.60;99.90;;;;;;5036382;28;20033;-66
2024/01/05 01:02:58;;;;;;;23.38;6.38;;;6.60;99.90;;;;;;5036231;28;20032;-66
2024/01/05 01:05:23;;;;;;;26.65;6.40;;;6.60;99.90;;;;;;5036083;28;20100;-66
2024/01/05 01:07:49;;;;;;;20.35;6.07;;;6.60;99.90;;;;;;5036185;28;20033;-66
2024/01/05 01:10:14;;;;;;;27.35;6.38;;;6.70;99.90;;;;;;5034894;28;20029;-66
2024/01/05 01:12:41;;;;;;;20.05;6.85;;;6.70;99.90;;;;;;5035826;28;20136;-66
2024/01/05 01:15:07;;;;;;;25.42;7.18;;;6.60;99.90;;;;;;5035946;28;20022;-66
2024/01/05 01:17:33;;;;;;;26.23;6.95;;;6.70;99.90;;;;;;5035961;28;20087;-66
2024/01/05 01:19:58;;;;;;;22.80;6.43;;;6.70;99.90;;;;;;5034696;28;20029;-66
2024/01/05 01:22:24;;;;;;;25.20;6.68;;;6.80;99.90;;;;;;5034708;28;20029;-66
2024/01/05 01:24:50;;;;;;;29.00;6.90;;;6.80;99.90;;;;;;5035568;28;20045;-66
2024/01/05 01:27:16;;;;;;;22.35;6.05;;;6.80;99.90;;;;;;5035588;28;20033;-66
2024/01/05 01:29:42;;;;;;;24.33;5.97;;;6.80;99.90;;;;;;5035904;28;20541;-66
2024/01/05 01:32:09;;;;;;;24.20;6.05;;;6.70;99.90;;;;;;5034302;28;20026;-66
2024/01/05 01:34:35;;;;;;;20.92;6.60;;;6.80;99.90;;;;;;5035534;28;20112;-66
2024/01/05 01:37:00;;;;;;;12.77;5.72;;;6.80;99.90;;;;;;5035721;28;20032;-66
2024/01/05 01:39:26;;;;;;;23.05;6.15;;;6.80;99.90;;;;;;5035285;28;20049;-66
2024/01/05 01:41:51;;;;;;;21.65;5.88;;;6.80;99.90;;;;;;5035125;28;20369;-66
2024/01/05 01:44:17;;;;;;;23.17;6.07;;;6.80;99.90;;;;;;5035497;28;20021;-66
2024/01/05 01:46:43;;;;;;;19.73;6.15;;;6.80;99.90;;;;;;5035540;28;20026;-66
2024/01/05 01:49:09;;;;;;;27.17;6.20;;;6.80;99.90;;;;;;5034860;28;20428;-66
2024/01/05 01:51:35;;;;;;;16.85;5.80;;;6.80;99.90;;;;;;5035312;28;20029;-66
2024/01/05 01:54:04;;;;;;;21.88;5.63;;;6.80;99.90;;;;;;5035350;28;20481;-66
2024/01/05 01:56:32;;;;;;;17.65;4.95;;;6.90;99.90;;;;;;5035090;28;20029;-66
2024/01/05 01:58:57;;;;;;;25.33;5.97;;;6.90;99.90;;;;;;5035324;28;20096;-66
2024/01/05 02:01:23;;;;;;;23.30;5.15;;;6.90;99.90;;;;;;5034989;28;20030;-66
2024/01/05 02:03:50;;;;;;;22.50;5.22;;;6.90;99.90;;;;;;5034968;28;20414;-66
2024/01/05 02:06:15;;;;;;;23.63;5.60;;;6.90;99.90;;;;;;5034907;28;20025;-66
2024/01/05 02:08:43;;;;;;;16.20;5.38;;;7.00;99.90;;;;;;5034941;28;20442;-66
2024/01/05 02:11:08;;;;;;;24.38;5.85;;;7.00;99.90;;;;;;5035031;28;20387;-66
2024/01/05 02:13:34;;;;;;;26.27;5.35;;;6.90;99.90;;;;;;5034844;28;20036;-66
2024/01/05 02:16:00;;;;;;;23.65;4.97;;;7.00;99.90;;;;;;5035088;28;20037;-67
2024/01/05 02:18:25;;;;;;;22.23;5.20;;;6.90;99.90;;;;;;5034766;28;20035;-66
2024/01/05 02:20:51;;;;;;;17.55;4.90;;;6.90;99.90;;;;;;5034824;28;20161;-67
2024/01/05 02:23:25;;;;;;;14.98;4.57;;;6.90;99.90;;;;;;5034614;28;20052;-66
2024/01/05 02:25:50;;;;;;;24.58;5.32;;;6.90;99.90;;;;;;5034580;28;20025;-66
2024/01/05 02:28:17;;;;;;;14.27;4.65;;;6.90;99.90;;;;;;5034494;28;20017;-66
2024/01/05 02:30:42;;;;;;;22.77;4.78;;;6.90;99.90;;;;;;5034715;28;20111;-66
2024/01/05 02:33:08;;;;;;;19.00;5.03;;;6.90;99.90;;;;;;5034692;28;20060;-66
2024/01/05 02:35:33;;;;;;;17.50;5.20;;;6.90;99.90;;;;;;5034508;28;20531;-66
2024/01/05 02:37:59;;;;;;;20.30;5.05;;;6.90;99.90;;;;;;5034203;28;20144;-66
2024/01/05 02:40:24;;;;;;;17.42;4.70;;;6.90;99.90;;;;;;5034559;28;20030;-66
2024/01/05 02:42:50;;;;;;;19.73;4.50;;;6.90;99.90;;;;;;5034036;28;20021;-66
2024/01/05 02:45:20;;;;;;;20.35;5.07;;;6.90;99.90;;;;;;5034417;28;20036;-66
2024/01/05 02:47:47;;;;;;;21.88;6.05;;;6.80;99.90;;;;;;5034389;28;20519;-66
2024/01/05 02:50:13;;;;;;;25.52;5.90;;;6.90;99.90;;;;;;5034044;28;20437;-66
2024/01/05 02:52:39;;;;;;;27.38;5.60;;;6.80;99.90;;;;;;5034119;28;20029;-66
2024/01/05 02:55:05;;;;;;;17.10;6.25;;;6.80;99.90;;;;;;5034305;28;20403;-66
2024/01/05 02:57:30;;;;;;;20.70;6.00;;;6.80;99.90;;;;;;5034169;28;20053;-66
2024/01/05 02:59:56;;;;;;;17.85;5.78;;;6.70;99.90;;;;;;5033763;28;20021;-66
2024/01/05 03:02:21;;;;;;;24.23;5.80;;;6.70;99.90;;;;;;5033240;28;20033;-66
2024/01/05 03:04:47;;;;;;;23.00;5.70;;;6.70;99.90;;;;;;5033928;28;20037;-66
2024/01/05 03:07:13;;;;;;;15.90;5.53;;;6.70;99.90;;;;;;5033842;28;20048;-66
2024/01/05 03:09:38;;;;;;;21.83;5.90;;;6.70;99.90;;;;;;5033830;28;20497;-66
2024/01/05 03:12:05;;;;;;;20.90;5.50;;;6.60;99.90;;;;;;5033880;28;20460;-66
2024/01/05 03:14:30;;;;;;;16.05;5.20;;;6.60;99.90;;;;;;5033961;28;20025;-66
2024/01/05 03:16:56;;;;;;;18.73;6.30;;;6.60;99.90;;;;;;5033686;28;20397;-66
2024/01/05 03:19:21;;;;;;;21.63;5.13;;;6.50;99.90;;;;;;5033735;28;20029;-66
2024/01/05 03:21:47;;;;;;;22.58;5.18;;;6.50;99.90;;;;;;5033745;28;20108;-66
2024/01/05 03:24:12;;;;;;;12.07;5.60;;;6.50;99.90;;;;;;5033607;28;20029;-66
2024/01/05 03:26:38;;;;;;;16.88;5.65;;;6.50;99.90;;;;;;5033790;28;20021;-66
2024/01/05 03:29:03;;;;;;;24.05;5.45;;;6.50;99.90;;;;;;5033540;28;20025;-66
2024/01/05 03:31:29;;;;;;;22.00;5.45;;;6.40;99.90;;;;;;5033599;28;20057;-66
2024/01/05 03:33:54;;;;;;;15.38;4.70;;;6.40;99.90;;;;;;5033693;28;20108;-66
2024/01/05 03:36:20;;;;;;;19.55;5.63;;;6.40;99.90;;;;;;5033390;28;20029;-66
2024/01/05 03:38:45;;;;;;;21.50;5.55;;;6.30;99.90;;;;;;5033182;28;20049;-66
2024/01/05 03:41:13;;;;;;;15.10;4.82;;;6.20;99.90;;;;;;5033452;28;20034;-66
2024/01/05 03:43:39;;;;;;;19.30;5.18;;;6.20;99.90;;;;;;5033294;28;20487;-66
2024/01/05 03:46:09;;;;;;;26.83;5.82;;;6.20;99.90;;;;;;5033525;28;20018;-66
2024/01/05 03:48:35;;;;;;;20.60;5.55;;;6.20;99.90;;;;;;5033299;28;20483;-66
2024/01/05 03:51:00;;;;;;;16.58;5.07;;;6.20;99.90;;;;;;5033363;28;20075;-66
2024/01/05 03:53:27;;;;;;;23.95;5.15;;;6.10;99.90;;;;;;5033329;28;20025;-66
2024/01/05 03:55:52;;;;;;;13.95;4.90;;;6.00;99.90;;;;;;5033445;28;20036;-66
2024/01/05 03:58:17;;;;;;;16.75;4.90;;;6.00;99.90;;;;;;5033406;28;20026;-66
2024/01/05 04:00:43;;;;;;;23.98;6.18;;;6.00;99.90;;;;;;5033114;28;20021;-66
2024/01/05 04:03:09;;;;;;;17.33;5.22;;;6.00;99.90;;;;;;5033330;28;20071;-66
2024/01/05 04:05:35;;;;;;;20.10;6.45;;;6.00;99.90;;;;;;5033001;28;20372;-66
2024/01/05 04:08:01;;;;;;;20.30;5.90;;;6.00;99.90;;;;;;5033169;28;20018;-65
2024/01/05 04:10:26;;;;;;;20.58;5.97;;;6.00;99.90;;;;;;5033016;28;20609;-66
2024/01/05 04:12:52;;;;;;;16.60;4.97;;;6.00;99.90;;;;;;5035215;28;20068;-65
2024/01/05 04:15:18;;;;;;;25.60;5.78;;;6.00;99.90;;;;;;5036958;28;20112;-65
2024/01/05 04:17:43;;;;;;;17.90;5.43;;;6.00;99.90;;;;;;5037264;28;20076;-66
2024/01/05 04:20:09;;;;;;;24.17;5.50;;;5.90;99.90;;;;;;5037284;28;20033;-66
2024/01/05 04:22:35;;;;;;;18.38;6.00;;;5.90;99.90;;;;;;5037089;28;20030;-65
2024/01/05 04:25:01;;;;;;;16.75;5.13;;;6.00;99.90;;;;;;5037194;28;20021;-65
2024/01/05 04:27:26;;;;;;;19.65;5.53;;;6.00;99.90;;;;;;5037048;28;20013;-66
2024/01/05 04:29:52;;;;;;;18.98;5.93;;;5.90;99.90;;;;;;5036762;28;20045;-65
2024/01/05 04:32:17;;;;;;;12.02;5.18;;;6.00;99.90;;;;;;5036722;28;20095;-65
2024/01/05 04:34:43;;;;;;;19.70;5.25;;;5.90;99.90;;;;;;5036957;28;20142;-65
2024/01/05 04:37:08;;;;;;;20.10;5.97;;;6.10;99.90;;;;;;5036681;28;20167;-65
2024/01/05 04:39:34;;;;;;;16.33;5.53;;;6.00;99.90;;;;;;5036519;28;20049;-66
2024/01/05 04:41:59;;;;;;;22.05;5.85;;;5.90;99.90;;;;;;5036601;28;20073;-65
2024/01/05 04:44:25;;;;;;;16.80;5.40;;;5.90;99.90;;;;;;5036472;28;20112;-65
2024/01/05 04:46:51;;;;;;;24.50;6.07;;;6.00;99.90;;;;;;5036477;28;20032;-65
2024/01/05 04:49:16;;;;;;;15.15;5.60;;;6.00;99.90;;;;;;5036381;28;20022;-65
2024/01/05 04:51:42;;;;;;;18.65;5.05;;;6.00;99.90;;;;;;5036442;28;20033;-65
2024/01/05 04:54:07;;;;;;;24.40;5.38;;;6.00;99.90;;;;;;5036234;28;20029;-65
2024/01/05 04:56:33;;;;;;;18.13;5.20;;;6.00;99.90;;;;;;5036410;28;20025;-65
2024/01/05 04:58:58;;;;;;;25.30;6.70;;;5.90;99.90;;;;;;5036376;28;20033;-66
2024/01/05 05:01:24;;;;;;;13.50;4.93;;;5.90;99.90;;;;;;5036082;28;20112;-65
2024/01/05 05:03:49;;;;;;;11.15;4.68;;;5.80;99.90;;;;;;5036111;28;20100;-65
2024/01/05 05:06:15;;;;;;;19.42;5.78;;;5.80;99.90;;;;;;5036157;28;20025;-66
2024/01/05 05:08:40;;;;;;;17.75;5.70;;;5.80;99.90;;;;;;5036304;28;20491;-66
2024/01/05 05:11:06;;;;;;;17.75;5.53;;;5.80;99.90;;;;;;5036268;28;20042;-65
2024/01/05 05:13:31;;;;;;;15.65;5.55;;;5.90;99.90;;;;;;5036207;28;20029;-65
2024/01/05 05:15:57;;;;;;;21.23;8.02;;;5.90;99.90;;;;;;5035866;28;20029;-65
2024/01/05 05:18:22;;;;;;;14.63;5.47;;;6.00;99.90;;;;;;5035808;28;20029;-65
2024/01/05 05:20:48;;;;;;;20.08;6.38;;;6.00;99.90;;;;;;5035946;28;20048;-65
2024/01/05 05:23:13;;;;;;;19.27;6.47;;;6.10;99.90;;;;;;5035449;28;20178;-65
2024/01/05 05:25:39;;;;;;;25.13;7.78;;;6.20;99.90;;;;;;5035015;28;20021;-65
2024/01/05 05:28:05;;;;;;;60.35;24.73;;;6.20;99.90;;;;;;5035545;28;20025;-65
2024/01/05 05:30:32;;;;;;;34.25;11.15;;;6.20;99.90;;;;;;5035551;28;20032;-65
2024/01/05 05:32:57;;;;;;;25.88;8.52;;;6.30;99.90;;;;;;5035569;28;20117;-65
2024/01/05 05:35:23;;;;;;;20.95;5.93;;;6.30;99.90;;;;;;5035772;28;20053;-65
2024/01/05 05:37:48;;;;;;;16.13;6.40;;;6.40;99.90;;;;;;5035324;28;20558;-65
2024/01/05 05:40:14;;;;;;;21.33;6.35;;;6.40;99.90;;;;;;5035324;28;20495;-65
2024/01/05 05:42:39;;;;;;;18.45;6.20;;;6.40;99.90;;;;;;5035320;28;20065;-65
2024/01/05 05:45:05;;;;;;;23.52;6.65;;;6.50;99.90;;;;;;5035441;28;20038;-66
2024/01/05 05:47:31;;;;;;;22.67;6.80;;;6.50;99.90;;;;;;5035285;28;20021;-65
2024/01/05 05:49:56;;;;;;;27.30;7.50;;;6.50;99.90;;;;;;5035229;28;20087;-65
2024/01/05 05:52:22;;;;;;;26.52;7.35;;;6.50;99.90;;;;;;5034931;28;20026;-65
2024/01/05 05:54:47;;;;;;;21.38;7.00;;;6.60;99.90;;;;;;5035364;28;20037;-65
2024/01/05 05:57:13;;;;;;;23.95;6.97;;;6.60;99.90;;;;;;5035160;28;20029;-65
2024/01/05 05:59:38;;;;;;;35.83;13.45;;;6.60;99.90;;;;;;5035131;28;20036;-65
2024/01/05 06:02:04;;;;;;;54.15;22.17;;;6.60;99.90;;;;;;5035114;28;20029;-66
2024/01/05 06:04:29;;;;;;;43.72;20.00;;;6.70;99.90;;;;;;5035183;28;20052;-65
2024/01/05 06:06:56;;;;;;;35.60;14.57;;;6.70;99.90;;;;;;5034948;28;20021;-65
2024/01/05 06:09:21;;;;;;;19.38;9.73;;;6.70;99.90;;;;;;5034780;28;20028;-65
2024/01/05 06:11:47;;;;;;;30.95;8.90;;;6.70;99.90;;;;;;5035057;28;20390;-65
2024/01/05 06:14:13;;;;;;;27.52;8.23;;;6.80;99.90;;;;;;5034736;28;20029;-66
2024/01/05 06:16:38;;;;;;;22.50;8.32;;;6.80;99.90;;;;;;5034879;28;20030;-66
2024/01/05 06:19:04;;;;;;;27.45;8.95;;;6.90;99.90;;;;;;5034946;28;20053;-65
2024/01/05 06:21:29;;;;;;;22.40;7.40;;;6.90;99.90;;;;;;5034898;28;20029;-66
2024/01/05 06:23:55;;;;;;;21.63;6.55;;;6.90;99.90;;;;;;5034650;28;20025;-66
2024/01/05 06:26:20;;;;;;;17.70;5.72;;;6.90;99.90;;;;;;5034797;28;20033;-66
2024/01/05 06:28:46;;;;;;;22.90;5.70;;;7.00;99.90;;;;;;5034878;28;20043;-66
2024/01/05 06:31:11;;;;;;;20.23;5.43;;;7.00;99.90;;;;;;5034631;28;20056;-65
2024/01/05 06:33:37;;;;;;;18.52;5.78;;;7.00;99.90;;;;;;5034845;28;20442;-65
2024/01/05 06:36:02;;;;;;;21.92;5.18;;;7.00;99.90;;;;;;5034789;28;20029;-65
2024/01/05 06:38:28;;;;;;;14.90;5.20;;;7.10;99.90;;;;;;5034549;28;20053;-65
2024/01/05 06:40:53;;;;;;;36.28;15.00;;;7.10;99.90;;;;;;5034684;28;20037;-66
2024/01/05 06:43:19;;;;;;;37.88;17.05;;;7.50;99.90;;;;;;5034731;28;20025;-65
2024/01/05 06:45:44;;;;;;;47.80;21.25;;;7.20;99.90;;;;;;5034705;28;20026;-65
2024/01/05 06:48:10;;;;;;;26.77;10.95;;;7.20;99.90;;;;;;5034727;28;20036;-66
2024/01/05 06:50:35;;;;;;;59.70;28.70;;;7.20;99.90;;;;;;5034253;28;20029;-65
2024/01/05 06:53:01;;;;;;;69.00;29.98;;;7.20;99.90;;;;;;5034511;28;20204;-65
2024/01/05 06:55:27;;;;;;;60.15;25.95;;;7.20;99.90;;;;;;5034003;28;20030;-65
2024/01/05 06:57:53;;;;;;;26.65;10.10;;;7.20;99.90;;;;;;5049535;28;20025;-66
2024/01/05 07:00:18;;;;;;;23.27;9.45;;;7.20;99.90;;;;;;5033326;28;20026;-67
2024/01/05 07:02:44;;;;;;;30.40;8.27;;;7.30;99.90;;;;;;5033280;28;20104;-66
2024/01/05 07:05:10;;;;;;;21.42;7.82;;;7.20;99.90;;;;;;5033879;28;20052;-66
2024/01/05 07:07:35;;;;;;;55.40;17.13;;;7.30;99.90;;;;;;5032401;28;20026;-66
2024/01/05 07:10:01;;;;;;;30.90;10.25;;;7.30;99.90;;;;;;5032518;28;20121;-65
2024/01/05 07:12:27;;;;;;;62.63;24.17;;;7.30;99.90;;;;;;5031146;28;20601;-66
2024/01/05 07:14:53;;;;;;;51.47;20.00;;;7.30;99.90;;;;;;5029159;28;20030;-65
2024/01/05 07:17:18;;;;;;;45.58;17.10;;;7.40;99.90;;;;;;5039266;28;20543;-66
2024/01/05 07:19:44;;;;;;;42.08;17.92;;;7.30;99.90;;;;;;5036843;28;20113;-65
2024/01/05 07:22:09;;;;;;;40.47;14.07;;;7.30;99.90;;;;;;5032373;28;20029;-67
2024/01/05 07:24:37;;;;;;;37.65;12.70;;;7.40;99.90;;;;;;5024545;28;20033;-66
2024/01/05 07:27:03;;;;;;;25.02;8.82;;;7.30;99.90;;;;;;5022425;28;20033;-66
2024/01/05 07:29:29;;;;;;;14.27;6.18;;;7.40;99.90;;;;;;5030704;28;20113;-66
2024/01/05 07:31:54;;;;;;;22.75;7.40;;;7.40;99.90;;;;;;5033255;28;20105;-65
2024/01/05 07:34:20;;;;;;;20.23;5.05;;;7.50;99.90;;;;;;5032637;28;20025;-65
2024/01/05 07:36:45;;;;;;;18.95;5.03;;;7.50;99.90;;;;;;5031228;28;20084;-67
2024/01/05 07:39:12;;;;;;;23.35;6.93;;;7.50;99.90;;;;;;5034659;28;20519;-65
2024/01/05 07:41:39;;;;;;;20.67;8.93;;;7.50;99.90;;;;;;5032812;28;20030;-66
2024/01/05 07:44:05;;;;;;;10.25;3.65;;;7.60;99.90;;;;;;5025809;28;20396;-67
2024/01/05 07:46:31;;;;;;;16.63;5.00;;;7.60;99.90;;;;;;5029437;28;20160;-68
2024/01/05 07:48:57;;;;;;;12.15;3.88;;;7.70;99.90;;;;;;5027287;28;20542;-66
2024/01/05 07:51:23;;;;;;;13.20;5.88;;;7.70;99.90;;;;;;5031758;28;20112;-65
2024/01/05 07:53:49;;;;;;;20.80;8.85;;;7.70;99.90;;;;;;5035326;28;20025;-66
2024/01/05 07:56:18;;;;;;;11.35;5.03;;;7.70;99.90;;;;;;5031739;28;20033;-66
2024/01/05 07:58:44;;;;;;;13.32;4.72;;;7.70;99.90;;;;;;5030229;28;20056;-66
2024/01/05 08:01:18;;;;;;;11.82;4.40;;;7.70;99.90;;;;;;5031992;28;20518;-67
2024/01/05 08:03:44;;;;;;;15.15;3.78;;;7.80;99.90;;;;;;5031031;28;20428;-66
2024/01/05 08:06:18;;;;;;;16.98;7.10;;;7.80;99.90;;;;;;5037955;28;20025;-66
2024/01/05 08:08:46;;;;;;;11.95;4.55;;;7.80;99.90;;;;;;5036880;28;20471;-66
2024/01/05 08:11:12;;;;;;;24.55;8.20;;;7.80;99.90;;;;;;5033253;28;20040;-66
2024/01/05 08:13:39;;;;;;;10.90;3.90;;;7.60;99.90;;;;;;5027732;28;20036;-66
2024/01/05 08:16:06;;;;;;;10.38;3.42;;;7.80;99.90;;;;;;5028820;28;20032;-66
2024/01/05 08:18:32;;;;;;;14.95;3.65;;;7.80;99.90;;;;;;5034578;28;20113;-65
2024/01/05 08:20:58;;;;;;;11.63;4.10;;;7.70;99.90;;;;;;5028610;28;20462;-66
2024/01/05 08:23:23;;;;;;;18.27;6.05;;;7.70;99.90;;;;;;5040625;28;20044;-66
2024/01/05 08:25:49;;;;;;;13.93;4.80;;;7.80;99.90;;;;;;5030034;28;20052;-66
2024/01/05 08:28:15;;;;;;;16.92;3.78;;;7.80;99.90;;;;;;5034344;28;20466;-66
2024/01/05 08:30:40;;;;;;;7.13;3.13;;;7.80;99.90;;;;;;5036596;28;20507;-65
2024/01/05 08:33:06;;;;;;;11.80;3.47;;;7.80;99.90;;;;;;5029017;28;20027;-66
2024/01/05 08:35:33;;;;;;;15.20;6.68;;;7.80;99.90;;;;;;5026096;28;20037;-66
2024/01/05 08:37:59;;;;;;;14.88;5.40;;;7.80;99.90;;;;;;5033865;28;20414;-68
2024/01/05 08:40:26;;;;;;;14.38;5.45;;;7.80;99.90;;;;;;5027870;28;20029;-67
2024/01/05 08:42:53;;;;;;;15.35;6.05;;;7.90;99.90;;;;;;5029791;28;20038;-65
2024/01/05 08:45:19;;;;;;;17.30;5.20;;;7.90;99.90;;;;;;5034714;28;20449;-65
2024/01/05 08:47:45;;;;;;;12.82;3.33;;;7.90;99.90;;;;;;5031666;28;20053;-65
2024/01/05 08:50:11;;;;;;;17.63;4.15;;;8.00;99.90;;;;;;5035743;28;20214;-65
2024/01/05 08:52:37;;;;;;;9.75;2.80;;;8.10;99.90;;;;;;5030426;28;20113;-66
2024/01/05 08:55:03;;;;;;;8.95;2.30;;;8.10;99.90;;;;;;5032444;28;20527;-67
2024/01/05 08:57:29;;;;;;;11.07;2.67;;;8.10;99.90;;;;;;5024258;28;20036;-66
2024/01/05 08:59:54;;;;;;;9.02;2.60;;;8.30;99.90;;;;;;5030623;28;20368;-66
2024/01/05 09:02:20;;;;;;;8.48;2.55;;;8.50;99.90;;;;;;5031032;28;20036;-66
2024/01/05 09:04:46;;;;;;;8.27;2.20;;;8.50;99.90;;;;;;5029419;28;20037;-66
2024/01/05 09:07:12;;;;;;;8.40;2.40;;;8.50;99.90;;;;;;5027231;28;20025;-67
2024/01/05 09:09:38;;;;;;;9.82;2.72;;;8.50;99.90;;;;;;5029520;28;20040;-68
2024/01/05 09:12:04;;;;;;;7.18;2.05;;;8.30;99.90;;;;;;5025729;28;20394;-67
2024/01/05 09:14:29;;;;;;;5.65;2.33;;;8.50;99.90;;;;;;5025498;28;20060;-67
2024/01/05 09:16:55;;;;;;;5.60;2.65;;;8.40;99.90;;;;;;5037405;28;20044;-66
2024/01/05 09:19:21;;;;;;;8.43;2.53;;;8.40;99.90;;;;;;5036144;28;20025;-66
2024/01/05 09:21:46;;;;;;;5.75;2.40;;;8.40;99.90;;;;;;5038809;28;20132;-66
2024/01/05 09:24:12;;;;;;;10.90;3.10;;;8.40;99.90;;;;;;5034158;28;20057;-66
2024/01/05 09:26:37;;;;;;;7.85;2.42;;;8.50;99.90;;;;;;5036284;28;20418;-67
2024/01/05 09:29:04;;;;;;;9.35;3.15;;;8.40;99.90;;;;;;5035549;28;20124;-66
2024/01/05 09:31:31;;;;;;;7.82;2.75;;;8.50;99.90;;;;;;5033717;28;20025;-66
2024/01/05 09:33:56;;;;;;;8.65;2.40;;;8.50;99.90;;;;;;5035321;28;20033;-66
2024/01/05 09:36:22;;;;;;;7.22;2.00;;;8.50;99.90;;;;;;5040141;28;20113;-67
2024/01/05 09:38:49;;;;;;;6.45;2.10;;;8.60;99.90;;;;;;5031429;28;20041;-66
2024/01/05 09:41:14;;;;;;;4.60;1.73;;;8.60;99.90;;;;;;5052973;28;20498;-66
2024/01/05 09:43:43;;;;;;;6.80;2.13;;;8.60;99.90;;;;;;5049114;28;20021;-66
2024/01/05 09:46:09;;;;;;;9.07;1.80;;;8.70;99.90;;;;;;5033489;28;20018;-66
2024/01/05 09:48:35;;;;;;;3.45;1.83;;;8.70;99.90;;;;;;5038312;28;20065;-69
2024/01/05 09:51:05;;;;;;;7.40;1.80;;;8.80;99.90;;;;;;5051747;28;20427;-66
2024/01/05 09:53:30;;;;;;;4.95;2.08;;;8.80;99.90;;;;;;5038356;28;20017;-66
2024/01/05 09:55:56;;;;;;;8.68;2.10;;;8.90;99.90;;;;;;5031416;28;20259;-66
2024/01/05 09:58:22;;;;;;;5.30;1.67;;;8.80;99.90;;;;;;5030398;28;20028;-67
2024/01/05 10:00:50;;;;;;;6.03;1.63;;;8.90;99.90;;;;;;5033946;28;20026;-66
2024/01/05 10:03:24;;;;;;;8.00;1.70;;;8.70;99.90;;;;;;5035160;28;20399;-68
2024/01/05 10:05:52;;;;;;;5.70;1.98;;;9.30;99.90;;;;;;5035216;28;20028;-68
2024/01/05 10:08:17;;;;;;;4.25;1.50;;;9.40;99.90;;;;;;5035349;28;20395;-69
2024/01/05 10:10:55;;;;;;;5.72;2.08;;;9.20;99.90;;;;;;5032090;28;20029;-69
2024/01/05 10:13:21;;;;;;;10.73;2.00;;;9.30;92.60;;;;;;5027164;28;20033;-68
2024/01/05 10:15:56;;;;;;;3.67;1.38;;;9.30;9.80;;;;;;5029637;28;20498;-69
2024/01/05 10:18:22;;;;;;;2.47;1.23;;;9.40;3.90;;;;;;5033241;28;20029;-68
2024/01/05 10:20:48;;;;;;;4.65;1.58;;;9.30;15.60;;;;;;5032769;28;20399;-69
2024/01/05 10:23:16;;;;;;;4.78;1.30;;;10.10;13.50;;;;;;5033795;28;20029;-69
2024/01/05 10:25:41;;;;;;;4.05;1.02;;;9.20;1.00;;;;;;5034395;28;20057;-69
2024/01/05 10:28:30;;;;;;;3.67;1.00;;;9.20;1.00;;;;;;5031542;28;20096;-70
2024/01/05 10:31:13;;;;;;;2.88;1.00;;;9.30;1.00;;;;;;5033741;28;20029;-70
2024/01/05 10:33:55;;;;;;;2.00;1.13;;;9.20;1.00;;;;;;5034022;28;20491;-69
2024/01/05 10:36:22;;;;;;;2.55;1.00;;;9.30;1.00;;;;;;5034666;28;20025;-70
2024/01/05 10:38:48;;;;;;;2.40;0.90;;;9.20;1.00;;;;;;5028425;28;20038;-70
2024/01/05 10:41:16;;;;;;;1.88;0.95;;;9.30;1.00;;;;;;5036233;28;20041;-69
2024/01/05 10:43:42;;;;;;;1.35;0.90;;;9.00;1.00;;;;;;5036182;28;20025;-70
2024/01/05 10:46:11;;;;;;;2.03;1.10;;;9.60;1.00;;;;;;5032883;28;20032;-69
2024/01/05 10:48:39;;;;;;;2.90;0.90;;;9.80;99.90;;;;;;5030960;28;20021;-69
2024/01/05 10:51:06;;;;;;;2.10;1.15;;;9.60;99.90;;;;;;5034367;28;20033;-69
2024/01/05 10:53:34;;;;;;;3.03;0.70;;;9.70;99.90;;;;;;5030181;28;20041;-69
2024/01/05 10:56:01;;;;;;;1.30;0.57;;;9.60;99.90;;;;;;5044226;28;20033;-69
2024/01/05 10:58:28;;;;;;;4.38;1.35;;;9.70;99.90;;;;;;5034331;28;20025;-69
2024/01/05 11:00:55;;;;;;;2.63;0.60;;;9.70;99.90;;;;;;5042068;28;20025;-69
2024/01/05 11:03:23;;;;;;;2.45;0.90;;;9.60;99.90;;;;;;5041584;28;20442;-69
2024/01/05 11:05:48;;;;;;;4.20;1.45;;;9.60;1.00;;;;;;5031803;28;20025;-69
2024/01/05 11:08:54;;;;;;;1.75;1.10;;;9.70;1.00;;;;;;5029054;28;20098;-69
2024/01/05 11:11:56;;;;;;;2.85;1.17;;;9.60;1.00;;;;;;5019801;28;20377;-69
2024/01/05 11:14:51;;;;;;;3.33;1.02;;;9.50;1.00;;;;;;5031863;28;20025;-69
2024/01/05 11:17:47;;;;;;;1.67;0.70;;;9.50;1.00;;;;;;5033135;28;20037;-69
2024/01/05 11:20:37;;;;;;;4.43;1.10;;;9.40;1.00;;;;;;5026573;28;20029;-69
2024/01/05 11:23:03;;;;;;;2.83;0.82;;;9.40;1.00;;;;;;5032603;28;20044;-70
2024/01/05 11:25:29;;;;;;;2.08;0.85;;;9.40;1.00;;;;;;5033293;28;20029;-69
2024/01/05 11:27:54;;;;;;;2.30;0.90;;;9.40;1.00;;;;;;5023129;28;20084;-69
2024/01/05 11:30:41;;;;;;;3.58;0.90;;;9.40;1.00;;;;;;5021171;28;20032;-69
2024/01/05 11:33:07;;;;;;;2.35;1.00;;;9.30;1.00;;;;;;5032329;28;20034;-69
2024/01/05 11:35:41;;;;;;;2.58;1.25;;;9.30;1.00;;;;;;5030761;28;20032;-69
2024/01/05 11:38:24;;;;;;;4.65;1.30;;;9.30;1.00;;;;;;5036428;28;20514;-69
2024/01/05 11:40:50;;;;;;;3.30;1.23;;;9.20;1.00;;;;;;5030996;28;20022;-69
2024/01/05 11:43:33;;;;;;;3.35;1.10;;;9.20;1.00;;;;;;5033301;28;20484;-69
2024/01/05 11:45:59;;;;;;;1.15;0.90;;;9.20;1.00;;;;;;5031286;28;20056;-70
2024/01/05 11:48:44;;;;;;;2.83;0.90;;;9.30;1.00;;;;;;5031544;28;20021;-69
2024/01/05 11:51:09;;;;;;;3.92;0.82;;;9.20;1.00;;;;;;5032995;28;21830;-69
2024/01/05 11:53:36;;;;;;;0.95;0.80;;;9.20;1.00;;;;;;5028791;28;20036;-69
2024/01/05 11:56:03;;;;;;;2.67;1.15;;;9.30;1.00;;;;;;5022997;28;20565;-70
2024/01/05 11:58:31;;;;;;;2.05;0.85;;;9.20;1.00;;;;;;5030133;28;20026;-70
2024/01/05 12:00:59;;;;;;;3.35;0.90;;;9.30;1.00;;;;;;5013091;28;20417;-70
2024/01/05 12:03:26;;;;;;;2.35;0.90;;;9.20;1.00;;;;;;5014247;28;20032;-70
2024/01/05 12:05:55;;;;;;;2.17;1.23;;;9.20;1.00;;;;;;5032726;28;20025;-70
2024/01/05 12:08:21;;;;;;;1.75;0.82;;;9.20;1.00;;;;;;5032522;28;20032;-71
2024/01/05 12:10:54;;;;;;;1.38;0.98;;;9.10;99.90;;;;;;5033208;28;20022;-70
2024/01/05 12:13:26;;;;;;;1.15;0.90;;;9.10;99.90;;;;;;5033210;28;20057;-70
2024/01/05 12:15:53;;;;;;;1.42;0.80;;;9.10;99.90;;;;;;5033023;28;20518;-70
2024/01/05 12:18:22;;;;;;;2.10;0.77;;;9.10;99.90;;;;;;5051502;28;20029;-70
2024/01/05 12:20:54;;;;;;;2.10;0.60;;;9.10;1.00;;;;;;5034820;28;20029;-70
2024/01/05 12:23:20;;;;;;;2.60;1.00;;;9.20;90.90;;;;;;5034676;28;20066;-70
2024/01/05 12:25:56;;;;;;;2.88;0.80;;;9.20;6.80;;;;;;5032238;28;20060;-70
2024/01/05 12:28:22;;;;;;;2.03;0.60;;;9.10;1.00;;;;;;5031220;28;20036;-70
2024/01/05 12:30:47;;;;;;;2.13;0.60;;;9.10;99.90;;;;;;5031525;28;20021;-70
2024/01/05 12:33:13;;;;;;;1.00;0.70;;;9.20;99.90;;;;;;5032659;28;20499;-70
2024/01/05 12:35:40;;;;;;;2.38;0.75;;;9.10;99.90;;;;;;5036168;28;20044;-69
2024/01/05 12:38:05;;;;;;;1.35;0.80;;;9.10;1.00;;;;;;5038724;28;20929;-69
2024/01/05 12:40:31;;;;;;;1.73;0.50;;;9.10;99.90;;;;;;5053649;28;20125;-69
2024/01/05 12:42:56;;;;;;;1.55;0.73;;;9.10;99.90;;;;;;5036944;28;20036;-69
2024/01/05 12:45:23;;;;;;;1.55;0.75;;;9.10;99.90;;;;;;5040193;28;20025;-69
2024/01/05 12:47:50;;;;;;;1.55;0.70;;;9.10;99.90;;;;;;5035569;28;20392;-69
2024/01/05 12:50:31;;;;;;;2.05;0.60;;;9.10;19.10;;;;;;5033172;28;20082;-71